Aviation Digital Data Service (ADDS)

Output produced by METARs form (2232 UTC 24 March 2019)
found at http://www.aviationweather.gov/metar/data/
 
KJAC 241726Z 2418/2518 VRB05KT P6SM VCSH SCT020 BKN035 
     TEMPO 2418/2421 5SM -SHSN SCT020 BKN030 
     FM242100 17007KT 4SM -SHSN OVC020 
     FM250400 19008KT P6SM VCSH SCT020 OVC035 
     FM251600 19006KT P6SM SCT060 SCT200 AMD LTD TO CLD VIS AND WIND
       
KJAN 241720Z 2418/2518 19007KT P6SM BKN080 
     FM250900 20006KT P6SM SCT020 OVC030 
     FM251200 21008KT 5SM -RA BR OVC007 
     FM251500 24010KT P6SM BKN012 OVC020
       
KJAX 241726Z 2418/2518 13010KT P6SM SCT050 
     FM242300 14004KT P6SM FEW050 SCT250 
     FM250800 00000KT P6SM SCT060 SCT250 
     FM251400 21005KT P6SM SCT030 BKN060
       
KJBR 242043Z 2421/2518 20012G19KT P6SM BKN025 OVC040 
     FM250000 21010KT P6SM BKN020 
     FM250600 23009KT 5SM -SHRA VCTS OVC030CB 
     FM250900 29008KT P6SM VCSH BKN020 
     FM251400 34008KT P6SM BKN025 OVC040
       
KJFK 241950Z 2420/2524 19015KT P6SM BKN150 
     FM242300 22013KT P6SM BKN120 
     FM250200 23009KT P6SM OVC100 
     FM250900 27006KT P6SM OVC080 
     FM251100 33010KT P6SM FEW035 BKN060 
     FM251800 35007KT P6SM SCT080 BKN150
       
KJER 241733Z 2418/2518 25015KT P6SM SCT020 BKN060 
     FM250200 VRB06KT P6SM SKC 
     FM251200 05015KT P6SM SCT120
       
KJHW 242102Z 2421/2518 24011KT P6SM BKN090 
     FM250500 34008KT P6SM BKN100 
     FM250600 01007KT P6SM BKN035 
     FM251300 02009KT P6SM SCT200
       
KJMS 242107Z 2421/2518 02013KT P6SM SCT015 BKN060 
     FM250500 02007KT P6SM BKN015
       
KJST 242118Z 2421/2518 25010KT P6SM BKN100 
     FM250200 25008KT P6SM OVC050 
     FM250700 28007KT P6SM VCSH OVC035 
     FM251500 04008KT 4SM BR VCSH OVC025